sensor_id;sensor_type;location;lat;lon;timestamp;pressure;altitude;pressure_sealevel;temperature;humidity
44044;BME280;29709;52.396;16.796;2023-03-14T00:02:24;99627.02;;;12.89;75.78
44044;BME280;29709;52.396;16.796;2023-03-14T00:05:37;99625.55;;;12.86;76.20
44044;BME280;29709;52.396;16.796;2023-03-14T00:08:50;99622.56;;;12.88;76.68
44044;BME280;29709;52.396;16.796;2023-03-14T00:12:04;99617.06;;;12.88;76.90
44044;BME280;29709;52.396;16.796;2023-03-14T00:15:20;99624.48;;;12.87;77.16
44044;BME280;29709;52.396;16.796;2023-03-14T00:18:33;99626.60;;;12.85;77.44
44044;BME280;29709;52.396;16.796;2023-03-14T00:21:46;99609.22;;;12.85;77.54
44044;BME280;29709;52.396;16.796;2023-03-14T00:25:00;99604.98;;;12.82;77.88
44044;BME280;29709;52.396;16.796;2023-03-14T00:28:13;99603.92;;;12.83;78.30
44044;BME280;29709;52.396;16.796;2023-03-14T00:31:26;99598.20;;;12.85;77.90
44044;BME280;29709;52.396;16.796;2023-03-14T00:34:40;99598.59;;;12.82;78.06
44044;BME280;29709;52.396;16.796;2023-03-14T00:37:53;99589.29;;;12.83;78.67
44044;BME280;29709;52.396;16.796;2023-03-14T00:41:08;99581.65;;;12.85;78.59
44044;BME280;29709;52.396;16.796;2023-03-14T00:44:22;99581.87;;;12.83;78.84
44044;BME280;29709;52.396;16.796;2023-03-14T00:47:35;99575.91;;;12.86;79.22
44044;BME280;29709;52.396;16.796;2023-03-14T00:50:48;99571.25;;;12.93;79.53
44044;BME280;29709;52.396;16.796;2023-03-14T00:54:02;99572.94;;;12.94;79.99
44044;BME280;29709;52.396;16.796;2023-03-14T00:57:15;99577.39;;;12.95;80.15
44044;BME280;29709;52.396;16.796;2023-03-14T01:00:28;99559.13;;;13.01;80.59
44044;BME280;29709;52.396;16.796;2023-03-14T01:03:41;99556.37;;;13.08;80.74
44044;BME280;29709;52.396;16.796;2023-03-14T01:06:54;99561.23;;;13.12;81.28
44044;BME280;29709;52.396;16.796;2023-03-14T01:10:11;99558.06;;;13.09;82.01
44044;BME280;29709;52.396;16.796;2023-03-14T01:13:25;99539.82;;;13.08;82.43
44044;BME280;29709;52.396;16.796;2023-03-14T01:16:38;99534.30;;;13.08;83.04
44044;BME280;29709;52.396;16.796;2023-03-14T01:19:51;99530.07;;;13.05;83.23
44044;BME280;29709;52.396;16.796;2023-03-14T01:23:04;99512.68;;;13.05;83.77
44044;BME280;29709;52.396;16.796;2023-03-14T01:26:19;99501.82;;;13.10;83.70
44044;BME280;29709;52.396;16.796;2023-03-14T01:29:33;99491.02;;;13.08;83.87
44044;BME280;29709;52.396;16.796;2023-03-14T01:32:46;99482.34;;;13.05;83.92
44044;BME280;29709;52.396;16.796;2023-03-14T01:35:59;99477.04;;;13.03;84.14
44044;BME280;29709;52.396;16.796;2023-03-14T01:39:14;99451.15;;;13.04;83.72
44044;BME280;29709;52.396;16.796;2023-03-14T01:42:28;99428.64;;;13.07;83.93
44044;BME280;29709;52.396;16.796;2023-03-14T01:49:15;99444.96;;;13.09;84.34
44044;BME280;29709;52.396;16.796;2023-03-14T01:52:39;99437.76;;;13.08;83.95
44044;BME280;29709;52.396;16.796;2023-03-14T01:55:55;99449.20;;;13.11;83.83
44044;BME280;29709;52.396;16.796;2023-03-14T01:59:12;99409.31;;;13.14;83.08
44044;BME280;29709;52.396;16.796;2023-03-14T02:02:26;99443.67;;;13.11;83.25
44044;BME280;29709;52.396;16.796;2023-03-14T02:05:41;99451.55;;;13.14;83.13
44044;BME280;29709;52.396;16.796;2023-03-14T02:08:55;99450.90;;;13.19;83.04
44044;BME280;29709;52.396;16.796;2023-03-14T02:12:09;99453.44;;;13.20;82.49
44044;BME280;29709;52.396;16.796;2023-03-14T02:15:24;99463.42;;;13.15;82.62
44044;BME280;29709;52.396;16.796;2023-03-14T02:18:38;99456.66;;;13.04;82.86
44044;BME280;29709;52.396;16.796;2023-03-14T02:22:06;99471.71;;;13.01;83.56
44044;BME280;29709;52.396;16.796;2023-03-14T02:25:26;99473.03;;;12.92;84.15
44044;BME280;29709;52.396;16.796;2023-03-14T02:28:41;99469.88;;;12.82;84.80
44044;BME280;29709;52.396;16.796;2023-03-14T02:31:55;99456.72;;;12.78;84.77
44044;BME280;29709;52.396;16.796;2023-03-14T02:35:11;99458.85;;;12.69;85.62
44044;BME280;29709;52.396;16.796;2023-03-14T02:41:52;99463.98;;;12.52;86.13
44044;BME280;29709;52.396;16.796;2023-03-14T02:48:41;99463.12;;;12.45;86.35
44044;BME280;29709;52.396;16.796;2023-03-14T02:51:56;99451.04;;;12.39;86.91
44044;BME280;29709;52.396;16.796;2023-03-14T02:55:09;99466.54;;;12.40;86.66
44044;BME280;29709;52.396;16.796;2023-03-14T02:58:23;99480.73;;;12.44;86.48
44044;BME280;29709;52.396;16.796;2023-03-14T03:01:36;99483.27;;;12.46;86.35
44044;BME280;29709;52.396;16.796;2023-03-14T03:04:49;99466.73;;;12.46;86.46
44044;BME280;29709;52.396;16.796;2023-03-14T03:08:03;99468.86;;;12.43;86.92
44044;BME280;29709;52.396;16.796;2023-03-14T03:11:17;99455.52;;;12.40;86.97
44044;BME280;29709;52.396;16.796;2023-03-14T03:14:30;99453.16;;;12.37;86.58
44044;BME280;29709;52.396;16.796;2023-03-14T03:17:44;99463.14;;;12.32;86.68
44044;BME280;29709;52.396;16.796;2023-03-14T03:21:00;99468.43;;;12.27;86.81
44044;BME280;29709;52.396;16.796;2023-03-14T03:24:14;99468.45;;;12.20;86.69
44044;BME280;29709;52.396;16.796;2023-03-14T03:27:30;99434.31;;;12.14;87.01
44044;BME280;29709;52.396;16.796;2023-03-14T03:30:44;99422.24;;;12.16;87.47
44044;BME280;29709;52.396;16.796;2023-03-14T03:33:58;99422.66;;;12.06;87.28
44044;BME280;29709;52.396;16.796;2023-03-14T03:37:11;99427.13;;;12.00;87.18
44044;BME280;29709;52.396;16.796;2023-03-14T03:40:24;99406.77;;;11.95;86.94
44044;BME280;29709;52.396;16.796;2023-03-14T03:43:37;99419.06;;;11.92;86.92
44044;BME280;29709;52.396;16.796;2023-03-14T03:46:50;99406.79;;;11.88;86.26
44044;BME280;29709;52.396;16.796;2023-03-14T03:50:04;99399.77;;;11.85;85.57
44044;BME280;29709;52.396;16.796;2023-03-14T03:53:17;99384.48;;;11.76;85.15
44044;BME280;29709;52.396;16.796;2023-03-14T03:56:31;99384.29;;;11.71;85.11
44044;BME280;29709;52.396;16.796;2023-03-14T03:59:44;99382.15;;;11.67;84.94
44044;BME280;29709;52.396;16.796;2023-03-14T04:02:57;99376.22;;;11.63;84.55
44044;BME280;29709;52.396;16.796;2023-03-14T04:06:12;99378.33;;;11.54;84.83
44044;BME280;29709;52.396;16.796;2023-03-14T04:09:25;99381.48;;;11.45;84.82
44044;BME280;29709;52.396;16.796;2023-03-14T04:12:38;99368.15;;;11.42;84.56
44044;BME280;29709;52.396;16.796;2023-03-14T04:15:52;99378.95;;;11.37;84.42
44044;BME280;29709;52.396;16.796;2023-03-14T04:19:05;99384.22;;;11.32;84.49
44044;BME280;29709;52.396;16.796;2023-03-14T04:22:19;99373.84;;;11.27;83.95
44044;BME280;29709;52.396;16.796;2023-03-14T04:25:32;99380.38;;;11.19;84.23
44044;BME280;29709;52.396;16.796;2023-03-14T04:28:45;99391.34;;;11.13;83.77
44044;BME280;29709;52.396;16.796;2023-03-14T04:31:58;99386.44;;;11.02;83.99
44044;BME280;29709;52.396;16.796;2023-03-14T04:35:11;99374.80;;;10.99;84.01
44044;BME280;29709;52.396;16.796;2023-03-14T04:38:25;99363.59;;;10.94;83.74
44044;BME280;29709;52.396;16.796;2023-03-14T04:41:38;99344.95;;;10.90;83.49
44044;BME280;29709;52.396;16.796;2023-03-14T04:44:51;99352.52;;;10.81;83.70
44044;BME280;29709;52.396;16.796;2023-03-14T04:48:05;99347.87;;;10.75;83.70
44044;BME280;29709;52.396;16.796;2023-03-14T04:51:19;99348.92;;;10.74;83.62
44044;BME280;29709;52.396;16.796;2023-03-14T04:54:32;99350.57;;;10.68;83.19
44044;BME280;29709;52.396;16.796;2023-03-14T04:57:45;99327.53;;;10.63;83.36
44044;BME280;29709;52.396;16.796;2023-03-14T05:01:04;99338.69;;;10.61;83.51
44044;BME280;29709;52.396;16.796;2023-03-14T05:04:18;99348.40;;;10.57;83.22
44044;BME280;29709;52.396;16.796;2023-03-14T05:07:31;99357.27;;;10.53;83.06
44044;BME280;29709;52.396;16.796;2023-03-14T05:10:44;99334.61;;;10.44;83.24
44044;BME280;29709;52.396;16.796;2023-03-14T05:13:57;99364.19;;;10.42;83.03
44044;BME280;29709;52.396;16.796;2023-03-14T05:17:11;99381.26;;;10.37;82.92
44044;BME280;29709;52.396;16.796;2023-03-14T05:20:27;99378.50;;;10.37;82.73
44044;BME280;29709;52.396;16.796;2023-03-14T05:23:40;99360.77;;;10.40;82.49
44044;BME280;29709;52.396;16.796;2023-03-14T05:26:53;99355.28;;;10.40;82.49
44044;BME280;29709;52.396;16.796;2023-03-14T05:30:08;99355.95;;;10.42;82.01
44044;BME280;29709;52.396;16.796;2023-03-14T05:33:21;99363.98;;;10.44;82.21
44044;BME280;29709;52.396;16.796;2023-03-14T05:36:34;99362.08;;;10.44;82.17
44044;BME280;29709;52.396;16.796;2023-03-14T05:39:47;99367.37;;;10.46;82.14
44044;BME280;29709;52.396;16.796;2023-03-14T05:43:00;99350.06;;;10.52;81.91
44044;BME280;29709;52.396;16.796;2023-03-14T05:46:14;99349.04;;;10.53;82.22
44044;BME280;29709;52.396;16.796;2023-03-14T05:49:27;99349.26;;;10.58;82.20
44044;BME280;29709;52.396;16.796;2023-03-14T05:52:40;99348.63;;;10.62;82.15
44044;BME280;29709;52.396;16.796;2023-03-14T05:55:54;99356.27;;;10.67;82.31
44044;BME280;29709;52.396;16.796;2023-03-14T05:59:07;99359.45;;;10.70;82.23
44044;BME280;29709;52.396;16.796;2023-03-14T06:02:22;99355.65;;;10.72;81.96
44044;BME280;29709;52.396;16.796;2023-03-14T06:05:35;99355.65;;;10.72;82.00
44044;BME280;29709;52.396;16.796;2023-03-14T06:08:49;99356.32;;;10.74;82.07
44044;BME280;29709;52.396;16.796;2023-03-14T06:12:03;99359.92;;;10.74;82.09
44044;BME280;29709;52.396;16.796;2023-03-14T06:15:16;99354.41;;;10.74;81.96
44044;BME280;29709;52.396;16.796;2023-03-14T06:18:29;99367.95;;;10.76;81.97
44044;BME280;29709;52.396;16.796;2023-03-14T06:21:43;99368.17;;;10.81;82.30
44044;BME280;29709;52.396;16.796;2023-03-14T06:24:56;99381.52;;;10.84;82.00
44044;BME280;29709;52.396;16.796;2023-03-14T06:28:10;99374.55;;;10.88;82.11
44044;BME280;29709;52.396;16.796;2023-03-14T06:31:23;99370.33;;;10.92;81.99
44044;BME280;29709;52.396;16.796;2023-03-14T06:34:36;99370.15;;;11.00;81.81
44044;BME280;29709;52.396;16.796;2023-03-14T06:37:51;99354.32;;;11.09;81.78
44044;BME280;29709;52.396;16.796;2023-03-14T06:41:05;99361.97;;;11.20;82.00
44044;BME280;29709;52.396;16.796;2023-03-14T06:44:18;99364.12;;;11.31;81.64
44044;BME280;29709;52.396;16.796;2023-03-14T06:47:32;99369.60;;;11.31;81.42
44044;BME280;29709;52.396;16.796;2023-03-14T06:50:45;99362.45;;;11.37;81.46
44044;BME280;29709;52.396;16.796;2023-03-14T06:53:58;99353.77;;;11.40;81.31
44044;BME280;29709;52.396;16.796;2023-03-14T06:57:12;99363.91;;;11.46;81.47
44044;BME280;29709;52.396;16.796;2023-03-14T07:00:25;99351.26;;;11.58;81.23
44044;BME280;29709;52.396;16.796;2023-03-14T07:03:38;99349.99;;;11.67;81.45
44044;BME280;29709;52.396;16.796;2023-03-14T07:06:51;99344.88;;;11.77;81.11
44044;BME280;29709;52.396;16.796;2023-03-14T07:10:05;99342.84;;;11.79;81.47
44044;BME280;29709;52.396;16.796;2023-03-14T07:13:21;99340.70;;;11.81;81.32
44044;BME280;29709;52.396;16.796;2023-03-14T07:16:34;99352.58;;;11.89;81.54
44044;BME280;29709;52.396;16.796;2023-03-14T07:19:47;99342.17;;;11.97;81.03
44044;BME280;29709;52.396;16.796;2023-03-14T07:23:01;99330.09;;;11.98;80.82
44044;BME280;29709;52.396;16.796;2023-03-14T07:26:16;99339.64;;;12.02;80.66
44044;BME280;29709;52.396;16.796;2023-03-14T07:29:29;99327.97;;;12.07;80.94
44044;BME280;29709;52.396;16.796;2023-03-14T07:32:42;99329.66;;;12.14;80.35
44044;BME280;29709;52.396;16.796;2023-03-14T07:35:55;99333.66;;;12.19;80.36
44044;BME280;29709;52.396;16.796;2023-03-14T07:39:08;99326.06;;;12.21;79.95
44044;BME280;29709;52.396;16.796;2023-03-14T07:42:22;99338.32;;;12.25;80.63
44044;BME280;29709;52.396;16.796;2023-03-14T07:45:35;99330.91;;;12.32;80.43
44044;BME280;29709;52.396;16.796;2023-03-14T07:48:48;99337.45;;;12.37;80.00
44044;BME280;29709;52.396;16.796;2023-03-14T07:52:01;99342.95;;;12.44;79.75
44044;BME280;29709;52.396;16.796;2023-03-14T07:55:15;99346.12;;;12.48;79.55
44044;BME280;29709;52.396;16.796;2023-03-14T07:58:28;99336.77;;;12.49;79.71
44044;BME280;29709;52.396;16.796;2023-03-14T08:01:41;99339.75;;;12.54;79.26
44044;BME280;29709;52.396;16.796;2023-03-14T08:04:55;99341.21;;;12.63;79.11
44044;BME280;29709;52.396;16.796;2023-03-14T08:08:08;99354.49;;;12.79;78.76
44044;BME280;29709;52.396;16.796;2023-03-14T08:11:21;99345.13;;;12.87;78.19
44044;BME280;29709;52.396;16.796;2023-03-14T08:14:34;99343.61;;;12.97;78.24
44044;BME280;29709;52.396;16.796;2023-03-14T08:17:48;99364.58;;;13.05;77.28
44044;BME280;29709;52.396;16.796;2023-03-14T08:21:04;99358.81;;;13.13;77.01
44044;BME280;29709;52.396;16.796;2023-03-14T08:24:17;99370.25;;;13.23;77.18
44044;BME280;29709;52.396;16.796;2023-03-14T08:27:30;99368.73;;;13.27;76.79
44044;BME280;29709;52.396;16.796;2023-03-14T08:30:44;99376.39;;;13.25;76.13
44044;BME280;29709;52.396;16.796;2023-03-14T08:34:00;99363.83;;;13.29;75.69
44044;BME280;29709;52.396;16.796;2023-03-14T08:37:14;99379.75;;;13.34;75.93
44044;BME280;29709;52.396;16.796;2023-03-14T08:40:27;99374.59;;;13.44;75.92
44044;BME280;29709;52.396;16.796;2023-03-14T08:43:40;99362.41;;;13.52;75.54
44044;BME280;29709;52.396;16.796;2023-03-14T08:46:53;99364.07;;;13.60;74.88
44044;BME280;29709;52.396;16.796;2023-03-14T08:50:08;99350.01;;;13.68;74.63
44044;BME280;29709;52.396;16.796;2023-03-14T08:53:22;99353.95;;;13.78;74.76
44044;BME280;29709;52.396;16.796;2023-03-14T08:56:35;99363.89;;;13.86;73.72
44044;BME280;29709;52.396;16.796;2023-03-14T08:59:50;99362.18;;;13.85;73.53
44044;BME280;29709;52.396;16.796;2023-03-14T09:03:04;99362.02;;;13.80;73.60
44044;BME280;29709;52.396;16.796;2023-03-14T09:06:17;99369.49;;;13.73;73.26
44044;BME280;29709;52.396;16.796;2023-03-14T09:09:30;99371.64;;;13.71;73.26
44044;BME280;29709;52.396;16.796;2023-03-14T09:12:44;99371.60;;;13.77;73.55
44044;BME280;29709;52.396;16.796;2023-03-14T09:15:57;99367.09;;;13.83;73.07
44044;BME280;29709;52.396;16.796;2023-03-14T09:19:10;99355.43;;;13.81;72.75
44044;BME280;29709;52.396;16.796;2023-03-14T09:22:23;99353.23;;;13.90;72.63
44044;BME280;29709;52.396;16.796;2023-03-14T09:25:37;99364.62;;;14.00;72.57
44044;BME280;29709;52.396;16.796;2023-03-14T09:28:50;99360.74;;;14.07;72.84
44044;BME280;29709;52.396;16.796;2023-03-14T09:32:03;99360.51;;;14.09;72.67
44044;BME280;29709;52.396;16.796;2023-03-14T09:35:17;99370.02;;;14.13;73.00
44044;BME280;29709;52.396;16.796;2023-03-14T09:38:30;99364.37;;;14.26;72.05
44044;BME280;29709;52.396;16.796;2023-03-14T09:41:50;99364.91;;;14.35;72.21
44044;BME280;29709;52.396;16.796;2023-03-14T09:45:23;99362.62;;;14.32;72.05
44044;BME280;29709;52.396;16.796;2023-03-14T09:48:32;99367.23;;;14.38;72.19
44044;BME280;29709;52.396;16.796;2023-03-14T09:51:47;99356.75;;;14.47;72.09
44044;BME280;29709;52.396;16.796;2023-03-14T09:55:09;99344.08;;;14.57;71.31
44044;BME280;29709;52.396;16.796;2023-03-14T09:58:25;99344.40;;;14.67;71.18
44044;BME280;29709;52.396;16.796;2023-03-14T10:01:38;99337.73;;;14.75;69.83
44044;BME280;29709;52.396;16.796;2023-03-14T10:04:53;99350.09;;;14.72;70.32
44044;BME280;29709;52.396;16.796;2023-03-14T10:08:11;99348.48;;;14.83;70.56
44044;BME280;29709;52.396;16.796;2023-03-14T10:11:24;99345.30;;;14.98;70.37
44044;BME280;29709;52.396;16.796;2023-03-14T10:14:47;99341.86;;;15.03;68.67
44044;BME280;29709;52.396;16.796;2023-03-14T10:18:02;99347.45;;;15.14;68.37
44044;BME280;29709;52.396;16.796;2023-03-14T10:21:21;99343.59;;;15.15;68.74
44044;BME280;29709;52.396;16.796;2023-03-14T10:24:37;99337.22;;;15.15;69.35
44044;BME280;29709;52.396;16.796;2023-03-14T10:27:55;99343.12;;;15.18;68.98
44044;BME280;29709;52.396;16.796;2023-03-14T10:31:08;99333.66;;;15.26;68.33
44044;BME280;29709;52.396;16.796;2023-03-14T10:34:25;99346.78;;;15.30;68.44
44044;BME280;29709;52.396;16.796;2023-03-14T10:44:29;99361.27;;;15.14;68.61
44044;BME280;29709;52.396;16.796;2023-03-14T10:47:49;99346.67;;;15.07;68.60
44044;BME280;29709;52.396;16.796;2023-03-14T10:54:29;99348.24;;;14.85;69.25
44044;BME280;29709;52.396;16.796;2023-03-14T10:57:43;99342.55;;;14.80;69.03
44044;BME280;29709;52.396;16.796;2023-03-14T11:01:02;99355.54;;;14.79;68.46
44044;BME280;29709;52.396;16.796;2023-03-14T11:04:29;99352.25;;;14.70;69.31
44044;BME280;29709;52.396;16.796;2023-03-14T11:07:45;99352.46;;;14.69;69.21
44044;BME280;29709;52.396;16.796;2023-03-14T11:14:33;99350.23;;;14.78;69.43
44044;BME280;29709;52.396;16.796;2023-03-14T11:18:04;99356.60;;;14.78;69.04
44044;BME280;29709;52.396;16.796;2023-03-14T11:21:29;99350.53;;;14.88;69.01
44044;BME280;29709;52.396;16.796;2023-03-14T11:24:55;99338.09;;;14.97;68.98
44044;BME280;29709;52.396;16.796;2023-03-14T11:28:21;99335.98;;;15.11;68.36
44044;BME280;29709;52.396;16.796;2023-03-14T11:31:35;99349.60;;;15.12;67.92
44044;BME280;29709;52.396;16.796;2023-03-14T11:34:53;99336.98;;;15.16;67.43
44044;BME280;29709;52.396;16.796;2023-03-14T11:41:40;99346.00;;;15.12;68.36
44044;BME280;29709;52.396;16.796;2023-03-14T11:44:55;99342.08;;;15.31;68.51
44044;BME280;29709;52.396;16.796;2023-03-14T11:51:43;99333.04;;;15.54;67.97
44044;BME280;29709;52.396;16.796;2023-03-14T11:55:07;99333.40;;;15.57;67.83
44044;BME280;29709;52.396;16.796;2023-03-14T11:58:29;99322.66;;;15.49;68.30
44044;BME280;29709;52.396;16.796;2023-03-14T12:01:54;99320.27;;;15.53;67.51
44044;BME280;29709;52.396;16.796;2023-03-14T12:08:42;99321.80;;;15.49;65.89
44044;BME280;29709;52.396;16.796;2023-03-14T12:11:58;99317.72;;;15.51;62.62
44044;BME280;29709;52.396;16.796;2023-03-14T12:15:20;99320.73;;;15.50;62.28
44044;BME280;29709;52.396;16.796;2023-03-14T12:18:36;99310.34;;;15.64;60.95
44044;BME280;29709;52.396;16.796;2023-03-14T12:21:56;99316.50;;;15.77;59.82
44044;BME280;29709;52.396;16.796;2023-03-14T12:25:17;99313.50;;;15.91;60.30
44044;BME280;29709;52.396;16.796;2023-03-14T12:28:32;99310.38;;;15.87;58.44
44044;BME280;29709;52.396;16.796;2023-03-14T12:31:47;99314.09;;;15.81;58.22
44044;BME280;29709;52.396;16.796;2023-03-14T12:41:53;99318.04;;;15.73;57.59
44044;BME280;29709;52.396;16.796;2023-03-14T12:48:38;99317.44;;;15.71;58.00
44044;BME280;29709;52.396;16.796;2023-03-14T12:52:00;99311.90;;;15.71;57.61
44044;BME280;29709;52.396;16.796;2023-03-14T12:58:49;99297.02;;;16.07;57.68
44044;BME280;29709;52.396;16.796;2023-03-14T13:02:14;99309.30;;;16.23;56.55
44044;BME280;29709;52.396;16.796;2023-03-14T13:05:33;99309.40;;;16.52;56.88
44044;BME280;29709;52.396;16.796;2023-03-14T13:08:46;99309.88;;;16.72;54.82
44044;BME280;29709;52.396;16.796;2023-03-14T13:12:11;99303.11;;;16.80;55.41
44044;BME280;29709;52.396;16.796;2023-03-14T13:15:35;99308.13;;;16.94;54.33
44044;BME280;29709;52.396;16.796;2023-03-14T13:22:23;99313.71;;;16.83;54.04
44044;BME280;29709;52.396;16.796;2023-03-14T13:25:38;99308.19;;;16.71;53.78
44044;BME280;29709;52.396;16.796;2023-03-14T13:28:51;99314.83;;;16.58;55.01
44044;BME280;29709;52.396;16.796;2023-03-14T13:32:20;99305.30;;;16.42;54.67
44044;BME280;29709;52.396;16.796;2023-03-14T13:35:41;99308.59;;;16.28;56.18
44044;BME280;29709;52.396;16.796;2023-03-14T13:39:00;99301.36;;;16.27;55.85
44044;BME280;29709;52.396;16.796;2023-03-14T13:42:15;99306.06;;;16.26;56.14
44044;BME280;29709;52.396;16.796;2023-03-14T13:45:30;99305.68;;;16.23;57.26
44044;BME280;29709;52.396;16.796;2023-03-14T13:48:50;99304.59;;;16.12;57.44
44044;BME280;29709;52.396;16.796;2023-03-14T14:01:03;99302.16;;;15.80;58.42
44044;BME280;29709;52.396;16.796;2023-03-14T14:04:19;99302.05;;;15.75;58.62
44044;BME280;29709;52.396;16.796;2023-03-14T14:07:34;99303.84;;;15.70;59.04
44044;BME280;29709;52.396;16.796;2023-03-14T14:10:48;99292.76;;;15.70;59.50
44044;BME280;29709;52.396;16.796;2023-03-14T14:14:04;99293.59;;;15.70;59.12
44044;BME280;29709;52.396;16.796;2023-03-14T14:17:22;99292.27;;;15.73;58.90
44044;BME280;29709;52.396;16.796;2023-03-14T14:20:42;99289.41;;;15.79;59.12
44044;BME280;29709;52.396;16.796;2023-03-14T14:23:56;99301.42;;;15.73;58.19
44044;BME280;29709;52.396;16.796;2023-03-14T14:27:16;99297.89;;;15.54;58.59
44044;BME280;29709;52.396;16.796;2023-03-14T14:30:32;99307.01;;;15.43;59.06
44044;BME280;29709;52.396;16.796;2023-03-14T14:37:18;99309.63;;;15.38;59.33
44044;BME280;29709;52.396;16.796;2023-03-14T14:40:32;99308.38;;;15.22;60.03
44044;BME280;29709;52.396;16.796;2023-03-14T14:43:46;99307.83;;;14.84;61.77
44044;BME280;29709;52.396;16.796;2023-03-14T14:47:02;99304.63;;;14.50;64.07
44044;BME280;29709;52.396;16.796;2023-03-14T14:50:27;99308.95;;;14.21;65.56
44044;BME280;29709;52.396;16.796;2023-03-14T14:53:43;99312.61;;;14.15;65.88
44044;BME280;29709;52.396;16.796;2023-03-14T14:57:02;99305.02;;;14.10;67.31
44044;BME280;29709;52.396;16.796;2023-03-14T15:03:46;99286.02;;;13.96;67.01
44044;BME280;29709;52.396;16.796;2023-03-14T15:07:02;99291.20;;;14.10;66.75
44044;BME280;29709;52.396;16.796;2023-03-14T15:10:18;99292.05;;;14.11;66.99
44044;BME280;29709;52.396;16.796;2023-03-14T15:13:31;99282.45;;;14.13;66.85
44044;BME280;29709;52.396;16.796;2023-03-14T15:16:44;99287.68;;;14.22;67.12
44044;BME280;29709;52.396;16.796;2023-03-14T15:19:58;99286.37;;;14.24;67.29
44044;BME280;29709;52.396;16.796;2023-03-14T15:23:13;99282.53;;;14.25;67.05
44044;BME280;29709;52.396;16.796;2023-03-14T15:26:27;99279.77;;;14.25;67.16
44044;BME280;29709;52.396;16.796;2023-03-14T15:29:41;99268.48;;;14.27;66.84
44044;BME280;29709;52.396;16.796;2023-03-14T15:32:54;99277.79;;;14.32;66.77
44044;BME280;29709;52.396;16.796;2023-03-14T15:39:55;99280.93;;;14.36;66.02
44044;BME280;29709;52.396;16.796;2023-03-14T15:43:10;99278.16;;;14.36;65.75
44044;BME280;29709;52.396;16.796;2023-03-14T15:46:24;99279.42;;;14.40;65.15
44044;BME280;29709;52.396;16.796;2023-03-14T15:49:40;99284.30;;;14.38;65.44
44044;BME280;29709;52.396;16.796;2023-03-14T15:52:53;99276.19;;;14.43;65.23
44044;BME280;29709;52.396;16.796;2023-03-14T15:56:15;99286.23;;;14.37;65.12
44044;BME280;29709;52.396;16.796;2023-03-14T15:59:28;99275.26;;;14.31;64.96
44044;BME280;29709;52.396;16.796;2023-03-14T16:02:42;99275.55;;;14.23;65.57
44044;BME280;29709;52.396;16.796;2023-03-14T16:05:55;99282.99;;;14.22;65.42
44044;BME280;29709;52.396;16.796;2023-03-14T16:09:08;99276.46;;;14.16;66.03
44044;BME280;29709;52.396;16.796;2023-03-14T16:12:21;99275.62;;;14.16;65.70
44044;BME280;29709;52.396;16.796;2023-03-14T16:15:34;99278.84;;;14.13;66.26
44044;BME280;29709;52.396;16.796;2023-03-14T16:18:47;99293.36;;;14.08;66.79
44044;BME280;29709;52.396;16.796;2023-03-14T16:22:01;99284.23;;;14.08;66.84
44044;BME280;29709;52.396;16.796;2023-03-14T16:25:16;99279.54;;;14.08;66.89
44044;BME280;29709;52.396;16.796;2023-03-14T16:28:30;99288.73;;;14.02;66.73
44044;BME280;29709;52.396;16.796;2023-03-14T16:31:44;99297.86;;;14.03;67.21
44044;BME280;29709;52.396;16.796;2023-03-14T16:34:57;99291.77;;;13.94;67.54
44044;BME280;29709;52.396;16.796;2023-03-14T16:38:10;99301.83;;;13.89;67.63
44044;BME280;29709;52.396;16.796;2023-03-14T16:41:24;99297.66;;;13.79;68.36
44044;BME280;29709;52.396;16.796;2023-03-14T16:44:37;99301.80;;;13.64;69.55
44044;BME280;29709;52.396;16.796;2023-03-14T16:47:50;99295.18;;;13.46;70.67
44044;BME280;29709;52.396;16.796;2023-03-14T16:51:03;99294.20;;;13.34;71.73
44044;BME280;29709;52.396;16.796;2023-03-14T16:54:16;99299.53;;;13.29;72.03
44044;BME280;29709;52.396;16.796;2023-03-14T16:57:29;99306.16;;;13.21;72.59
44044;BME280;29709;52.396;16.796;2023-03-14T17:00:44;99313.19;;;13.11;72.99
44044;BME280;29709;52.396;16.796;2023-03-14T17:03:58;99324.27;;;13.04;73.30
44044;BME280;29709;52.396;16.796;2023-03-14T17:07:11;99332.34;;;12.99;73.19
44044;BME280;29709;52.396;16.796;2023-03-14T17:10:25;99345.30;;;12.98;72.51
44044;BME280;29709;52.396;16.796;2023-03-14T17:13:38;99350.36;;;13.01;72.36
44044;BME280;29709;52.396;16.796;2023-03-14T17:16:51;99353.12;;;13.01;71.97
44044;BME280;29709;52.396;16.796;2023-03-14T17:20:07;99341.05;;;13.03;71.94
44044;BME280;29709;52.396;16.796;2023-03-14T17:23:22;99356.52;;;13.04;71.67
44044;BME280;29709;52.396;16.796;2023-03-14T17:26:35;99358.63;;;13.01;71.42
44044;BME280;29709;52.396;16.796;2023-03-14T17:29:49;99362.07;;;12.97;71.96
44044;BME280;29709;52.396;16.796;2023-03-14T17:33:03;99361.45;;;12.95;72.15
44044;BME280;29709;52.396;16.796;2023-03-14T17:36:18;99357.41;;;12.91;72.10
44044;BME280;29709;52.396;16.796;2023-03-14T17:39:31;99359.99;;;12.86;72.56
44044;BME280;29709;52.396;16.796;2023-03-14T17:42:45;99355.54;;;12.85;72.77
44044;BME280;29709;52.396;16.796;2023-03-14T17:46:03;99365.30;;;12.81;73.38
44044;BME280;29709;52.396;16.796;2023-03-14T17:49:26;99368.50;;;12.78;73.63
44044;BME280;29709;52.396;16.796;2023-03-14T17:52:41;99370.41;;;12.77;74.09
44044;BME280;29709;52.396;16.796;2023-03-14T17:55:54;99362.15;;;12.70;74.65
44044;BME280;29709;52.396;16.796;2023-03-14T17:59:09;99367.48;;;12.65;74.43
44044;BME280;29709;52.396;16.796;2023-03-14T18:02:23;99363.48;;;12.61;74.87
44044;BME280;29709;52.396;16.796;2023-03-14T18:05:38;99359.26;;;12.52;75.81
44044;BME280;29709;52.396;16.796;2023-03-14T18:08:52;99356.73;;;12.51;75.74
44044;BME280;29709;52.396;16.796;2023-03-14T18:12:08;99357.13;;;12.48;76.00